sensor_id;sensor_type;location;lat;lon;timestamp;P1;durP1;ratioP1;P2;durP2;ratioP2
41514;SDS011;27247;48.020;16.720;2023-02-07T00:03:16;61.67;;;24.35;;
41514;SDS011;27247;48.020;16.720;2023-02-07T00:07:26;59.78;;;24.02;;
41514;SDS011;27247;48.020;16.720;2023-02-07T00:11:37;64.95;;;27.02;;
41514;SDS011;27247;48.020;16.720;2023-02-07T00:15:49;56.50;;;23.75;;
41514;SDS011;27247;48.020;16.720;2023-02-07T00:20:00;61.38;;;24.98;;
41514;SDS011;27247;48.020;16.720;2023-02-07T00:24:10;69.05;;;25.20;;
41514;SDS011;27247;48.020;16.720;2023-02-07T00:28:21;66.57;;;25.08;;
41514;SDS011;27247;48.020;16.720;2023-02-07T00:32:31;60.30;;;24.60;;
41514;SDS011;27247;48.020;16.720;2023-02-07T00:36:43;66.18;;;25.58;;
41514;SDS011;27247;48.020;16.720;2023-02-07T00:40:54;59.53;;;25.13;;
41514;SDS011;27247;48.020;16.720;2023-02-07T00:45:04;65.40;;;24.58;;
41514;SDS011;27247;48.020;16.720;2023-02-07T00:49:15;62.22;;;25.45;;
41514;SDS011;27247;48.020;16.720;2023-02-07T00:53:26;65.82;;;26.73;;
41514;SDS011;27247;48.020;16.720;2023-02-07T00:57:37;56.65;;;24.83;;
41514;SDS011;27247;48.020;16.720;2023-02-07T01:01:48;61.60;;;25.38;;
41514;SDS011;27247;48.020;16.720;2023-02-07T01:05:58;60.25;;;24.17;;
41514;SDS011;27247;48.020;16.720;2023-02-07T01:10:08;69.03;;;26.98;;
41514;SDS011;27247;48.020;16.720;2023-02-07T01:14:19;60.67;;;24.83;;
41514;SDS011;27247;48.020;16.720;2023-02-07T01:18:29;65.03;;;27.00;;
41514;SDS011;27247;48.020;16.720;2023-02-07T01:22:40;69.93;;;27.83;;
41514;SDS011;27247;48.020;16.720;2023-02-07T01:26:50;72.10;;;26.77;;
41514;SDS011;27247;48.020;16.720;2023-02-07T01:31:04;75.55;;;28.85;;
41514;SDS011;27247;48.020;16.720;2023-02-07T01:35:16;71.78;;;28.33;;
41514;SDS011;27247;48.020;16.720;2023-02-07T01:39:27;74.47;;;28.60;;
41514;SDS011;27247;48.020;16.720;2023-02-07T01:48:07;77.70;;;29.77;;
41514;SDS011;27247;48.020;16.720;2023-02-07T01:52:28;75.05;;;28.67;;
41514;SDS011;27247;48.020;16.720;2023-02-07T01:56:43;72.57;;;30.38;;
41514;SDS011;27247;48.020;16.720;2023-02-07T02:00:57;71.10;;;28.83;;
41514;SDS011;27247;48.020;16.720;2023-02-07T02:05:10;74.15;;;28.02;;
41514;SDS011;27247;48.020;16.720;2023-02-07T02:09:21;78.15;;;28.60;;
41514;SDS011;27247;48.020;16.720;2023-02-07T02:39:54;68.65;;;29.33;;
41514;SDS011;27247;48.020;16.720;2023-02-07T02:44:21;80.50;;;28.85;;
41514;SDS011;27247;48.020;16.720;2023-02-07T02:48:44;67.13;;;27.27;;
41514;SDS011;27247;48.020;16.720;2023-02-07T02:52:55;71.40;;;29.13;;
41514;SDS011;27247;48.020;16.720;2023-02-07T02:57:17;62.33;;;27.30;;
41514;SDS011;27247;48.020;16.720;2023-02-07T03:10:29;72.35;;;28.42;;
41514;SDS011;27247;48.020;16.720;2023-02-07T03:19:23;70.10;;;27.35;;
41514;SDS011;27247;48.020;16.720;2023-02-07T03:23:38;66.72;;;27.17;;
41514;SDS011;27247;48.020;16.720;2023-02-07T03:27:50;72.40;;;27.27;;
41514;SDS011;27247;48.020;16.720;2023-02-07T03:32:04;72.13;;;26.63;;
41514;SDS011;27247;48.020;16.720;2023-02-07T03:36:27;74.47;;;26.75;;
41514;SDS011;27247;48.020;16.720;2023-02-07T03:40:43;76.07;;;27.45;;
41514;SDS011;27247;48.020;16.720;2023-02-07T03:44:56;71.50;;;27.58;;
41514;SDS011;27247;48.020;16.720;2023-02-07T03:49:09;70.13;;;26.83;;
41514;SDS011;27247;48.020;16.720;2023-02-07T03:53:20;78.90;;;27.63;;
41514;SDS011;27247;48.020;16.720;2023-02-07T03:57:30;73.18;;;28.25;;
41514;SDS011;27247;48.020;16.720;2023-02-07T04:01:41;67.88;;;28.02;;
41514;SDS011;27247;48.020;16.720;2023-02-07T04:05:52;83.07;;;29.23;;
41514;SDS011;27247;48.020;16.720;2023-02-07T04:10:03;86.95;;;30.33;;
41514;SDS011;27247;48.020;16.720;2023-02-07T04:14:14;79.68;;;29.65;;
41514;SDS011;27247;48.020;16.720;2023-02-07T04:18:25;76.88;;;28.15;;
41514;SDS011;27247;48.020;16.720;2023-02-07T04:22:35;76.85;;;28.90;;
41514;SDS011;27247;48.020;16.720;2023-02-07T04:26:45;80.88;;;29.17;;
41514;SDS011;27247;48.020;16.720;2023-02-07T04:30:56;82.00;;;30.33;;
41514;SDS011;27247;48.020;16.720;2023-02-07T04:35:06;73.85;;;27.77;;
41514;SDS011;27247;48.020;16.720;2023-02-07T04:39:17;84.10;;;30.88;;
41514;SDS011;27247;48.020;16.720;2023-02-07T04:43:28;77.70;;;29.48;;
41514;SDS011;27247;48.020;16.720;2023-02-07T04:47:39;84.07;;;28.67;;
41514;SDS011;27247;48.020;16.720;2023-02-07T04:51:49;74.45;;;31.45;;
41514;SDS011;27247;48.020;16.720;2023-02-07T04:56:00;78.57;;;31.10;;
41514;SDS011;27247;48.020;16.720;2023-02-07T05:00:10;82.53;;;30.52;;
41514;SDS011;27247;48.020;16.720;2023-02-07T05:04:21;80.90;;;31.75;;
41514;SDS011;27247;48.020;16.720;2023-02-07T05:08:31;92.35;;;32.08;;
41514;SDS011;27247;48.020;16.720;2023-02-07T05:12:42;86.63;;;31.25;;
41514;SDS011;27247;48.020;16.720;2023-02-07T05:16:52;83.53;;;31.10;;
41514;SDS011;27247;48.020;16.720;2023-02-07T05:21:03;86.75;;;32.72;;
41514;SDS011;27247;48.020;16.720;2023-02-07T05:25:13;86.75;;;32.55;;
41514;SDS011;27247;48.020;16.720;2023-02-07T05:29:24;93.30;;;32.58;;
41514;SDS011;27247;48.020;16.720;2023-02-07T05:33:34;84.53;;;31.88;;
41514;SDS011;27247;48.020;16.720;2023-02-07T05:37:45;91.32;;;33.92;;
41514;SDS011;27247;48.020;16.720;2023-02-07T05:41:55;89.45;;;34.00;;
41514;SDS011;27247;48.020;16.720;2023-02-07T05:46:05;91.90;;;34.70;;
41514;SDS011;27247;48.020;16.720;2023-02-07T05:50:16;97.03;;;33.63;;
41514;SDS011;27247;48.020;16.720;2023-02-07T05:54:26;93.72;;;34.28;;
41514;SDS011;27247;48.020;16.720;2023-02-07T05:58:37;90.28;;;33.97;;
41514;SDS011;27247;48.020;16.720;2023-02-07T06:02:47;91.97;;;33.45;;
41514;SDS011;27247;48.020;16.720;2023-02-07T06:06:57;84.88;;;31.25;;
41514;SDS011;27247;48.020;16.720;2023-02-07T06:11:08;96.57;;;34.17;;
41514;SDS011;27247;48.020;16.720;2023-02-07T06:15:18;99.82;;;37.47;;
41514;SDS011;27247;48.020;16.720;2023-02-07T06:19:28;105.05;;;37.97;;
41514;SDS011;27247;48.020;16.720;2023-02-07T06:23:39;96.07;;;35.40;;
41514;SDS011;27247;48.020;16.720;2023-02-07T06:27:49;84.40;;;31.50;;
41514;SDS011;27247;48.020;16.720;2023-02-07T06:32:00;95.30;;;32.65;;
41514;SDS011;27247;48.020;16.720;2023-02-07T06:36:10;86.15;;;33.63;;
41514;SDS011;27247;48.020;16.720;2023-02-07T06:40:20;102.55;;;38.92;;
41514;SDS011;27247;48.020;16.720;2023-02-07T06:44:31;99.38;;;36.78;;
41514;SDS011;27247;48.020;16.720;2023-02-07T06:48:41;94.20;;;35.17;;
41514;SDS011;27247;48.020;16.720;2023-02-07T06:52:51;88.68;;;32.25;;
41514;SDS011;27247;48.020;16.720;2023-02-07T06:57:02;102.20;;;33.90;;
41514;SDS011;27247;48.020;16.720;2023-02-07T07:01:12;94.00;;;34.03;;
41514;SDS011;27247;48.020;16.720;2023-02-07T07:05:28;94.72;;;36.03;;
41514;SDS011;27247;48.020;16.720;2023-02-07T07:09:39;99.55;;;35.63;;
41514;SDS011;27247;48.020;16.720;2023-02-07T07:13:50;95.80;;;33.72;;
41514;SDS011;27247;48.020;16.720;2023-02-07T07:18:00;101.32;;;37.72;;
41514;SDS011;27247;48.020;16.720;2023-02-07T07:22:10;99.28;;;39.53;;
41514;SDS011;27247;48.020;16.720;2023-02-07T07:26:21;94.88;;;36.15;;
41514;SDS011;27247;48.020;16.720;2023-02-07T07:30:31;102.88;;;38.75;;
41514;SDS011;27247;48.020;16.720;2023-02-07T07:34:42;98.82;;;36.85;;
41514;SDS011;27247;48.020;16.720;2023-02-07T07:38:52;104.63;;;38.35;;
41514;SDS011;27247;48.020;16.720;2023-02-07T07:43:03;94.78;;;34.65;;
41514;SDS011;27247;48.020;16.720;2023-02-07T07:47:13;95.07;;;34.92;;
41514;SDS011;27247;48.020;16.720;2023-02-07T07:51:23;104.00;;;36.42;;
41514;SDS011;27247;48.020;16.720;2023-02-07T07:55:34;101.10;;;37.63;;
41514;SDS011;27247;48.020;16.720;2023-02-07T07:59:44;90.97;;;33.95;;
41514;SDS011;27247;48.020;16.720;2023-02-07T08:03:54;104.38;;;39.00;;
41514;SDS011;27247;48.020;16.720;2023-02-07T08:08:05;95.97;;;35.75;;
41514;SDS011;27247;48.020;16.720;2023-02-07T08:12:15;91.70;;;36.70;;
41514;SDS011;27247;48.020;16.720;2023-02-07T08:16:26;94.88;;;37.22;;
41514;SDS011;27247;48.020;16.720;2023-02-07T08:20:36;93.93;;;35.95;;
41514;SDS011;27247;48.020;16.720;2023-02-07T08:24:46;83.13;;;33.40;;
41514;SDS011;27247;48.020;16.720;2023-02-07T08:28:57;88.43;;;32.55;;
41514;SDS011;27247;48.020;16.720;2023-02-07T08:33:07;87.15;;;34.53;;
41514;SDS011;27247;48.020;16.720;2023-02-07T08:37:18;88.78;;;33.63;;
41514;SDS011;27247;48.020;16.720;2023-02-07T08:41:28;84.28;;;33.17;;
41514;SDS011;27247;48.020;16.720;2023-02-07T08:45:39;80.50;;;31.27;;
41514;SDS011;27247;48.020;16.720;2023-02-07T08:49:50;76.65;;;30.13;;
41514;SDS011;27247;48.020;16.720;2023-02-07T08:54:01;64.82;;;28.13;;
41514;SDS011;27247;48.020;16.720;2023-02-07T08:58:11;77.32;;;29.63;;
41514;SDS011;27247;48.020;16.720;2023-02-07T09:02:21;74.80;;;31.42;;
41514;SDS011;27247;48.020;16.720;2023-02-07T09:06:32;74.68;;;29.95;;
41514;SDS011;27247;48.020;16.720;2023-02-07T09:10:42;73.63;;;30.40;;
41514;SDS011;27247;48.020;16.720;2023-02-07T09:14:52;71.68;;;28.33;;
41514;SDS011;27247;48.020;16.720;2023-02-07T09:19:03;61.00;;;26.30;;
41514;SDS011;27247;48.020;16.720;2023-02-07T09:23:13;67.00;;;28.83;;
41514;SDS011;27247;48.020;16.720;2023-02-07T09:27:26;64.32;;;27.15;;
41514;SDS011;27247;48.020;16.720;2023-02-07T09:31:37;75.78;;;28.30;;
41514;SDS011;27247;48.020;16.720;2023-02-07T09:35:47;68.18;;;27.25;;
41514;SDS011;27247;48.020;16.720;2023-02-07T09:39:59;72.10;;;27.90;;
41514;SDS011;27247;48.020;16.720;2023-02-07T09:48:45;57.10;;;25.35;;
41514;SDS011;27247;48.020;16.720;2023-02-07T09:53:02;56.22;;;22.48;;
41514;SDS011;27247;48.020;16.720;2023-02-07T09:57:33;50.42;;;22.08;;
41514;SDS011;27247;48.020;16.720;2023-02-07T10:01:52;52.17;;;23.35;;
41514;SDS011;27247;48.020;16.720;2023-02-07T10:06:15;57.90;;;24.63;;
41514;SDS011;27247;48.020;16.720;2023-02-07T10:27:42;60.80;;;25.85;;
41514;SDS011;27247;48.020;16.720;2023-02-07T10:31:58;54.05;;;24.08;;
41514;SDS011;27247;48.020;16.720;2023-02-07T10:36:13;61.47;;;26.02;;
41514;SDS011;27247;48.020;16.720;2023-02-07T10:40:29;66.80;;;25.52;;
41514;SDS011;27247;48.020;16.720;2023-02-07T10:44:45;90.40;;;32.05;;
41514;SDS011;27247;48.020;16.720;2023-02-07T10:48:55;56.88;;;24.73;;
41514;SDS011;27247;48.020;16.720;2023-02-07T10:53:06;61.22;;;25.38;;
41514;SDS011;27247;48.020;16.720;2023-02-07T10:57:17;63.15;;;27.08;;
41514;SDS011;27247;48.020;16.720;2023-02-07T11:01:29;53.17;;;24.98;;
41514;SDS011;27247;48.020;16.720;2023-02-07T11:10:15;62.17;;;27.60;;
41514;SDS011;27247;48.020;16.720;2023-02-07T11:14:28;63.38;;;26.42;;
41514;SDS011;27247;48.020;16.720;2023-02-07T11:18:46;60.83;;;26.23;;
41514;SDS011;27247;48.020;16.720;2023-02-07T11:23:12;67.32;;;25.67;;
41514;SDS011;27247;48.020;16.720;2023-02-07T11:27:24;61.17;;;26.17;;
41514;SDS011;27247;48.020;16.720;2023-02-07T11:31:35;61.13;;;26.40;;
41514;SDS011;27247;48.020;16.720;2023-02-07T11:44:29;58.65;;;26.05;;
41514;SDS011;27247;48.020;16.720;2023-02-07T11:48:39;51.58;;;24.17;;
41514;SDS011;27247;48.020;16.720;2023-02-07T11:52:50;60.17;;;25.20;;
41514;SDS011;27247;48.020;16.720;2023-02-07T11:57:09;64.75;;;24.63;;
41514;SDS011;27247;48.020;16.720;2023-02-07T12:01:23;55.15;;;23.60;;
41514;SDS011;27247;48.020;16.720;2023-02-07T12:05:41;54.20;;;22.75;;
41514;SDS011;27247;48.020;16.720;2023-02-07T12:09:56;53.63;;;23.73;;
41514;SDS011;27247;48.020;16.720;2023-02-07T12:14:18;55.15;;;23.73;;
41514;SDS011;27247;48.020;16.720;2023-02-07T12:18:40;51.97;;;24.27;;
41514;SDS011;27247;48.020;16.720;2023-02-07T12:27:33;48.60;;;20.65;;
41514;SDS011;27247;48.020;16.720;2023-02-07T12:31:56;49.58;;;20.88;;
41514;SDS011;27247;48.020;16.720;2023-02-07T12:36:24;58.15;;;23.30;;
41514;SDS011;27247;48.020;16.720;2023-02-07T12:44:53;52.28;;;23.70;;
41514;SDS011;27247;48.020;16.720;2023-02-07T12:53:49;53.42;;;22.17;;
41514;SDS011;27247;48.020;16.720;2023-02-07T13:11:42;49.20;;;21.50;;
41514;SDS011;27247;48.020;16.720;2023-02-07T13:16:20;46.85;;;22.35;;
41514;SDS011;27247;48.020;16.720;2023-02-07T13:20:42;49.00;;;21.85;;
41514;SDS011;27247;48.020;16.720;2023-02-07T13:24:56;50.75;;;21.33;;
41514;SDS011;27247;48.020;16.720;2023-02-07T13:29:12;57.92;;;22.75;;
41514;SDS011;27247;48.020;16.720;2023-02-07T13:33:35;52.00;;;23.88;;
41514;SDS011;27247;48.020;16.720;2023-02-07T13:51:15;47.13;;;21.55;;
41514;SDS011;27247;48.020;16.720;2023-02-07T13:55:33;47.00;;;21.98;;
41514;SDS011;27247;48.020;16.720;2023-02-07T14:00:06;46.08;;;21.67;;
41514;SDS011;27247;48.020;16.720;2023-02-07T14:04:26;45.78;;;21.60;;
41514;SDS011;27247;48.020;16.720;2023-02-07T14:09:21;44.38;;;20.83;;
41514;SDS011;27247;48.020;16.720;2023-02-07T14:13:37;46.58;;;22.05;;
41514;SDS011;27247;48.020;16.720;2023-02-07T14:18:02;45.20;;;21.90;;
41514;SDS011;27247;48.020;16.720;2023-02-07T14:35:04;40.27;;;19.90;;
41514;SDS011;27247;48.020;16.720;2023-02-07T14:43:50;42.20;;;20.30;;
41514;SDS011;27247;48.020;16.720;2023-02-07T14:48:28;38.15;;;19.00;;
41514;SDS011;27247;48.020;16.720;2023-02-07T14:52:56;43.47;;;18.83;;
41514;SDS011;27247;48.020;16.720;2023-02-07T15:01:54;40.88;;;17.25;;
41514;SDS011;27247;48.020;16.720;2023-02-07T15:06:15;39.72;;;18.05;;
41514;SDS011;27247;48.020;16.720;2023-02-07T15:10:28;43.38;;;19.45;;
41514;SDS011;27247;48.020;16.720;2023-02-07T15:14:41;39.65;;;17.45;;
41514;SDS011;27247;48.020;16.720;2023-02-07T15:19:02;46.88;;;19.50;;
41514;SDS011;27247;48.020;16.720;2023-02-07T15:23:20;43.97;;;20.05;;
41514;SDS011;27247;48.020;16.720;2023-02-07T15:27:32;50.53;;;22.85;;
41514;SDS011;27247;48.020;16.720;2023-02-07T15:31:43;47.42;;;20.88;;
41514;SDS011;27247;48.020;16.720;2023-02-07T15:35:54;44.78;;;21.08;;
41514;SDS011;27247;48.020;16.720;2023-02-07T15:40:04;58.20;;;25.73;;
41514;SDS011;27247;48.020;16.720;2023-02-07T15:44:19;70.05;;;24.50;;
41514;SDS011;27247;48.020;16.720;2023-02-07T15:48:32;51.90;;;23.17;;
41514;SDS011;27247;48.020;16.720;2023-02-07T15:52:55;52.78;;;22.48;;
41514;SDS011;27247;48.020;16.720;2023-02-07T15:57:12;54.50;;;25.58;;
41514;SDS011;27247;48.020;16.720;2023-02-07T16:01:30;55.20;;;24.38;;
41514;SDS011;27247;48.020;16.720;2023-02-07T16:05:41;48.22;;;21.88;;
41514;SDS011;27247;48.020;16.720;2023-02-07T16:09:51;52.15;;;22.20;;
41514;SDS011;27247;48.020;16.720;2023-02-07T16:22:45;58.83;;;26.53;;
41514;SDS011;27247;48.020;16.720;2023-02-07T16:26:56;64.90;;;29.23;;
41514;SDS011;27247;48.020;16.720;2023-02-07T16:31:09;54.95;;;27.45;;
41514;SDS011;27247;48.020;16.720;2023-02-07T16:39:31;69.03;;;29.40;;
41514;SDS011;27247;48.020;16.720;2023-02-07T16:43:41;60.28;;;28.85;;
41514;SDS011;27247;48.020;16.720;2023-02-07T16:47:52;50.35;;;23.30;;
41514;SDS011;27247;48.020;16.720;2023-02-07T16:52:03;48.67;;;24.38;;
41514;SDS011;27247;48.020;16.720;2023-02-07T16:56:17;56.88;;;23.80;;
41514;SDS011;27247;48.020;16.720;2023-02-07T17:00:34;55.92;;;20.90;;
41514;SDS011;27247;48.020;16.720;2023-02-07T17:04:45;45.03;;;19.67;;
41514;SDS011;27247;48.020;16.720;2023-02-07T17:08:55;44.58;;;20.80;;
41514;SDS011;27247;48.020;16.720;2023-02-07T17:13:05;47.25;;;21.33;;
41514;SDS011;27247;48.020;16.720;2023-02-07T17:17:17;51.60;;;21.30;;
41514;SDS011;27247;48.020;16.720;2023-02-07T17:21:27;47.35;;;22.52;;
41514;SDS011;27247;48.020;16.720;2023-02-07T17:25:38;48.83;;;20.85;;
41514;SDS011;27247;48.020;16.720;2023-02-07T17:29:48;55.03;;;23.63;;
41514;SDS011;27247;48.020;16.720;2023-02-07T17:33:59;55.35;;;23.83;;
41514;SDS011;27247;48.020;16.720;2023-02-07T17:38:09;50.30;;;21.70;;
41514;SDS011;27247;48.020;16.720;2023-02-07T17:42:20;43.03;;;20.88;;
41514;SDS011;27247;48.020;16.720;2023-02-07T17:46:33;48.95;;;21.45;;
41514;SDS011;27247;48.020;16.720;2023-02-07T17:50:44;50.08;;;21.58;;
41514;SDS011;27247;48.020;16.720;2023-02-07T17:54:55;48.58;;;22.02;;
41514;SDS011;27247;48.020;16.720;2023-02-07T17:59:06;39.90;;;20.58;;
41514;SDS011;27247;48.020;16.720;2023-02-07T18:03:26;53.88;;;28.85;;
41514;SDS011;27247;48.020;16.720;2023-02-07T18:07:37;64.78;;;29.50;;
41514;SDS011;27247;48.020;16.720;2023-02-07T18:11:48;63.13;;;29.17;;
41514;SDS011;27247;48.020;16.720;2023-02-07T18:15:59;55.78;;;25.40;;
41514;SDS011;27247;48.020;16.720;2023-02-07T18:20:10;59.08;;;25.38;;
41514;SDS011;27247;48.020;16.720;2023-02-07T18:24:21;53.97;;;25.27;;
41514;SDS011;27247;48.020;16.720;2023-02-07T18:28:32;55.47;;;23.17;;
41514;SDS011;27247;48.020;16.720;2023-02-07T18:32:42;53.20;;;23.60;;
41514;SDS011;27247;48.020;16.720;2023-02-07T18:36:54;45.58;;;21.00;;
41514;SDS011;27247;48.020;16.720;2023-02-07T18:41:09;61.97;;;24.35;;
41514;SDS011;27247;48.020;16.720;2023-02-07T18:45:21;68.80;;;27.58;;
41514;SDS011;27247;48.020;16.720;2023-02-07T18:49:33;62.47;;;25.65;;
41514;SDS011;27247;48.020;16.720;2023-02-07T18:53:44;77.30;;;34.38;;
41514;SDS011;27247;48.020;16.720;2023-02-07T18:57:56;119.53;;;46.33;;
41514;SDS011;27247;48.020;16.720;2023-02-07T19:02:09;86.55;;;33.92;;
41514;SDS011;27247;48.020;16.720;2023-02-07T19:06:21;97.93;;;39.30;;
41514;SDS011;27247;48.020;16.720;2023-02-07T19:10:37;55.22;;;24.92;;
41514;SDS011;27247;48.020;16.720;2023-02-07T19:14:48;53.22;;;23.77;;
41514;SDS011;27247;48.020;16.720;2023-02-07T19:19:00;52.88;;;22.48;;
41514;SDS011;27247;48.020;16.720;2023-02-07T19:23:12;67.40;;;27.30;;
41514;SDS011;27247;48.020;16.720;2023-02-07T19:27:23;58.97;;;24.83;;
41514;SDS011;27247;48.020;16.720;2023-02-07T19:31:34;54.20;;;23.77;;
41514;SDS011;27247;48.020;16.720;2023-02-07T19:35:46;55.53;;;24.17;;
41514;SDS011;27247;48.020;16.720;2023-02-07T19:39:57;45.38;;;21.58;;
41514;SDS011;27247;48.020;16.720;2023-02-07T19:44:09;50.30;;;22.67;;
41514;SDS011;27247;48.020;16.720;2023-02-07T19:48:21;58.80;;;24.17;;
41514;SDS011;27247;48.020;16.720;2023-02-07T19:52:34;51.58;;;21.27;;
41514;SDS011;27247;48.020;16.720;2023-02-07T19:56:45;53.05;;;22.88;;
41514;SDS011;27247;48.020;16.720;2023-02-07T20:00:59;47.38;;;21.20;;
41514;SDS011;27247;48.020;16.720;2023-02-07T20:05:11;47.85;;;20.17;;
41514;SDS011;27247;48.020;16.720;2023-02-07T20:09:22;41.42;;;21.83;;
41514;SDS011;27247;48.020;16.720;2023-02-07T20:13:34;40.50;;;18.50;;
41514;SDS011;27247;48.020;16.720;2023-02-07T20:17:47;44.28;;;19.88;;
41514;SDS011;27247;48.020;16.720;2023-02-07T20:21:57;48.53;;;20.30;;
41514;SDS011;27247;48.020;16.720;2023-02-07T20:26:10;47.78;;;18.88;;
41514;SDS011;27247;48.020;16.720;2023-02-07T20:30:24;47.03;;;19.80;;
41514;SDS011;27247;48.020;16.720;2023-02-07T20:34:35;51.88;;;21.10;;
41514;SDS011;27247;48.020;16.720;2023-02-07T20:38:49;45.75;;;20.02;;
41514;SDS011;27247;48.020;16.720;2023-02-07T20:43:01;48.75;;;20.85;;
41514;SDS011;27247;48.020;16.720;2023-02-07T20:47:11;45.35;;;19.98;;
41514;SDS011;27247;48.020;16.720;2023-02-07T20:51:22;56.15;;;21.90;;
41514;SDS011;27247;48.020;16.720;2023-02-07T20:55:34;48.70;;;20.27;;
41514;SDS011;27247;48.020;16.720;2023-02-07T20:59:45;48.38;;;21.27;;
41514;SDS011;27247;48.020;16.720;2023-02-07T21:03:57;47.05;;;20.52;;
41514;SDS011;27247;48.020;16.720;2023-02-07T21:08:08;48.88;;;20.40;;
41514;SDS011;27247;48.020;16.720;2023-02-07T21:12:19;51.83;;;20.70;;
41514;SDS011;27247;48.020;16.720;2023-02-07T21:16:30;52.10;;;20.48;;
41514;SDS011;27247;48.020;16.720;2023-02-07T21:20:40;48.33;;;20.65;;
41514;SDS011;27247;48.020;16.720;2023-02-07T21:24:52;48.53;;;21.05;;
41514;SDS011;27247;48.020;16.720;2023-02-07T21:29:03;55.20;;;21.35;;
41514;SDS011;27247;48.020;16.720;2023-02-07T21:33:16;57.15;;;23.17;;
41514;SDS011;27247;48.020;16.720;2023-02-07T21:37:26;55.85;;;21.45;;
41514;SDS011;27247;48.020;16.720;2023-02-07T21:41:38;49.42;;;21.55;;
41514;SDS011;27247;48.020;16.720;2023-02-07T21:45:49;49.13;;;21.13;;
41514;SDS011;27247;48.020;16.720;2023-02-07T21:50:00;57.80;;;22.10;;
41514;SDS011;27247;48.020;16.720;2023-02-07T21:54:11;54.42;;;23.00;;
41514;SDS011;27247;48.020;16.720;2023-02-07T21:58:22;46.38;;;20.25;;
41514;SDS011;27247;48.020;16.720;2023-02-07T22:02:32;49.83;;;22.50;;
41514;SDS011;27247;48.020;16.720;2023-02-07T22:06:44;46.28;;;21.17;;
41514;SDS011;27247;48.020;16.720;2023-02-07T22:11:00;54.42;;;21.40;;
41514;SDS011;27247;48.020;16.720;2023-02-07T22:15:11;57.10;;;23.60;;
41514;SDS011;27247;48.020;16.720;2023-02-07T22:19:21;60.58;;;25.20;;
41514;SDS011;27247;48.020;16.720;2023-02-07T22:23:32;58.58;;;24.50;;
41514;SDS011;27247;48.020;16.720;2023-02-07T22:27:44;50.08;;;22.27;;
41514;SDS011;27247;48.020;16.720;2023-02-07T22:31:54;57.33;;;22.10;;
41514;SDS011;27247;48.020;16.720;2023-02-07T22:36:10;61.75;;;23.38;;
41514;SDS011;27247;48.020;16.720;2023-02-07T22:40:24;63.70;;;25.02;;
41514;SDS011;27247;48.020;16.720;2023-02-07T22:44:35;60.05;;;23.65;;
41514;SDS011;27247;48.020;16.720;2023-02-07T22:48:45;58.53;;;24.95;;
41514;SDS011;27247;48.020;16.720;2023-02-07T22:52:56;62.50;;;25.67;;
41514;SDS011;27247;48.020;16.720;2023-02-07T22:57:07;57.63;;;24.40;;
41514;SDS011;27247;48.020;16.720;2023-02-07T23:01:22;60.42;;;24.00;;
41514;SDS011;27247;48.020;16.720;2023-02-07T23:05:37;61.17;;;24.77;;
41514;SDS011;27247;48.020;16.720;2023-02-07T23:09:48;62.60;;;25.63;;
41514;SDS011;27247;48.020;16.720;2023-02-07T23:13:58;60.88;;;25.20;;
41514;SDS011;27247;48.020;16.720;2023-02-07T23:18:09;63.72;;;25.45;;
41514;SDS011;27247;48.020;16.720;2023-02-07T23:22:20;75.65;;;27.88;;
41514;SDS011;27247;48.020;16.720;2023-02-07T23:26:30;67.45;;;26.63;;
41514;SDS011;27247;48.020;16.720;2023-02-07T23:30:43;61.05;;;25.48;;
41514;SDS011;27247;48.020;16.720;2023-02-07T23:34:54;62.50;;;25.45;;
41514;SDS011;27247;48.020;16.720;2023-02-07T23:39:04;60.97;;;24.45;;
41514;SDS011;27247;48.020;16.720;2023-02-07T23:43:15;64.85;;;24.33;;
41514;SDS011;27247;48.020;16.720;2023-02-07T23:47:25;64.20;;;25.75;;
41514;SDS011;27247;48.020;16.720;2023-02-07T23:51:36;61.05;;;23.15;;
41514;SDS011;27247;48.020;16.720;2023-02-07T23:55:47;56.05;;;23.30;;
41514;SDS011;27247;48.020;16.720;2023-02-07T23:59:58;60.97;;;25.63;;
